createdAt,value
2017-08-20T00:02:24.118Z,99282.34
2017-08-20T00:04:53.927Z,99284.05
2017-08-20T00:07:23.698Z,99285.63
2017-08-20T00:09:53.362Z,99282.24
2017-08-20T00:12:22.926Z,99283.75
2017-08-20T00:14:52.580Z,99285.78
2017-08-20T00:17:22.006Z,99281.62
2017-08-20T00:19:51.489Z,99289.91
2017-08-20T00:22:20.743Z,99295.80
2017-08-20T00:24:50.184Z,99294.52
2017-08-20T00:27:19.688Z,99296.31
2017-08-20T00:29:49.276Z,99289.84
2017-08-20T00:32:18.976Z,99289.88
2017-08-20T00:34:49.062Z,99292.34
2017-08-20T00:37:18.615Z,99290.55
2017-08-20T00:39:48.139Z,99285.75
2017-08-20T00:42:18.194Z,99278.28
2017-08-20T00:44:47.987Z,99286.25
2017-08-20T00:47:17.227Z,99289.00
2017-08-20T00:49:47.215Z,99296.91
2017-08-20T00:52:16.441Z,99297.41
2017-08-20T00:54:46.000Z,99299.91
2017-08-20T00:57:16.104Z,99300.65
2017-08-20T00:59:45.923Z,99303.17
2017-08-20T01:02:15.443Z,99301.91
2017-08-20T01:04:44.903Z,99301.70
2017-08-20T01:07:14.274Z,99300.11
2017-08-20T01:09:43.579Z,99303.19
2017-08-20T01:12:13.227Z,99311.55
2017-08-20T01:14:42.451Z,99308.71
2017-08-20T01:17:11.636Z,99308.11
2017-08-20T01:19:41.110Z,99313.81
2017-08-20T01:22:10.435Z,99308.99
2017-08-20T01:24:39.643Z,99315.08
2017-08-20T01:27:09.514Z,99312.34
2017-08-20T01:29:39.225Z,99312.59
2017-08-20T01:32:08.935Z,99318.17
2017-08-20T01:34:39.361Z,99315.91
2017-08-20T01:37:09.064Z,99310.23
2017-08-20T01:39:38.486Z,99322.55
2017-08-20T01:42:07.931Z,99322.41
2017-08-20T01:44:37.785Z,99317.42
2017-08-20T01:47:07.310Z,99317.40
2017-08-20T01:49:36.954Z,99318.28
2017-08-20T01:52:06.495Z,99317.39
2017-08-20T01:54:35.859Z,99327.27
2017-08-20T01:57:05.197Z,99323.81
2017-08-20T01:59:35.313Z,99332.63
2017-08-20T02:02:05.472Z,99331.77
2017-08-20T02:04:35.003Z,99328.97
2017-08-20T02:07:05.721Z,99332.91
2017-08-20T02:09:35.208Z,99330.39
2017-08-20T02:12:05.477Z,99334.56
2017-08-20T02:14:37.775Z,99327.06
2017-08-20T02:17:07.884Z,99331.27
2017-08-20T02:19:37.427Z,99332.69
2017-08-20T02:22:07.216Z,99331.13
2017-08-20T02:24:37.077Z,99334.06
2017-08-20T02:27:06.715Z,99336.40
2017-08-20T02:29:36.344Z,99330.95
2017-08-20T02:32:06.014Z,99333.36
2017-08-20T02:34:35.905Z,99334.15
2017-08-20T02:37:06.459Z,99339.78
2017-08-20T02:39:36.028Z,99337.02
2017-08-20T02:42:07.712Z,99339.09
2017-08-20T02:44:37.287Z,99346.55
2017-08-20T02:47:06.636Z,99347.26
2017-08-20T02:49:36.480Z,99350.81
2017-08-20T02:52:05.884Z,99345.55
2017-08-20T02:54:35.112Z,99347.32
2017-08-20T02:57:06.423Z,99348.17
2017-08-20T02:59:36.367Z,99353.58
2017-08-20T03:02:07.290Z,99354.53
2017-08-20T03:04:36.826Z,99351.95
2017-08-20T03:07:07.081Z,99357.06
2017-08-20T03:09:36.443Z,99355.34
2017-08-20T03:12:05.907Z,99354.81
2017-08-20T03:14:35.383Z,99362.44
2017-08-20T03:17:05.320Z,99361.77
2017-08-20T03:19:34.850Z,99362.09
2017-08-20T03:22:05.145Z,99363.09
2017-08-20T03:24:34.850Z,99361.23
2017-08-20T03:27:05.421Z,99362.58
2017-08-20T03:29:34.819Z,99365.05
2017-08-20T03:32:05.549Z,99366.11
2017-08-20T03:34:35.120Z,99369.25
2017-08-20T03:37:05.457Z,99372.27
2017-08-20T03:39:35.165Z,99372.11
2017-08-20T03:42:06.716Z,99383.82
2017-08-20T03:44:36.143Z,99381.73
2017-08-20T03:47:05.932Z,99383.11
2017-08-20T03:49:35.661Z,99380.42
2017-08-20T03:52:06.619Z,99384.72
2017-08-20T03:54:36.784Z,99385.42
2017-08-20T03:57:06.381Z,99385.77
2017-08-20T03:59:35.799Z,99380.70
2017-08-20T04:02:05.398Z,99382.26
2017-08-20T04:04:34.875Z,99381.51
2017-08-20T04:07:05.831Z,99384.30
2017-08-20T04:09:35.698Z,99386.70
2017-08-20T04:12:05.089Z,99389.23
2017-08-20T04:14:34.278Z,99389.50
2017-08-20T04:17:06.155Z,99392.88
2017-08-20T04:19:35.562Z,99391.81
2017-08-20T04:22:05.099Z,99391.33
2017-08-20T04:24:35.255Z,99393.98
2017-08-20T04:27:05.362Z,99400.33
2017-08-20T04:29:34.705Z,99402.66
2017-08-20T04:32:05.680Z,99404.80
2017-08-20T04:34:35.147Z,99399.45
2017-08-20T04:37:05.570Z,99410.64
2017-08-20T04:39:35.387Z,99410.84
2017-08-20T04:42:05.522Z,99414.95
2017-08-20T04:44:34.946Z,99419.03
2017-08-20T04:47:06.327Z,99420.67
2017-08-20T04:49:35.810Z,99425.44
2017-08-20T04:52:05.522Z,99426.24
2017-08-20T04:54:35.184Z,99430.14
2017-08-20T04:57:05.399Z,99430.84
2017-08-20T04:59:34.859Z,99436.19
2017-08-20T05:02:05.774Z,99439.70
2017-08-20T05:04:35.435Z,99439.69
2017-08-20T05:07:05.449Z,99438.58
2017-08-20T05:09:35.094Z,99441.28
2017-08-20T05:12:05.352Z,99438.80
2017-08-20T05:14:34.983Z,99438.28
2017-08-20T05:17:05.536Z,99441.84
2017-08-20T05:19:35.134Z,99446.17
2017-08-20T05:22:05.414Z,99443.31
2017-08-20T05:24:35.446Z,99446.48
2017-08-20T05:27:05.975Z,99448.27
2017-08-20T05:29:35.371Z,99445.06
2017-08-20T05:32:07.031Z,99440.66
2017-08-20T05:34:36.632Z,99440.17
2017-08-20T05:37:06.162Z,99436.73
2017-08-20T05:39:36.063Z,99435.01
2017-08-20T05:42:05.986Z,99435.52
2017-08-20T05:44:37.323Z,99431.16
2017-08-20T05:47:07.483Z,99433.63
2017-08-20T05:49:36.931Z,99436.06
2017-08-20T05:52:06.523Z,99429.11
2017-08-20T05:54:35.960Z,99431.96
2017-08-20T05:57:05.971Z,99425.41
2017-08-20T05:59:35.395Z,99428.14
2017-08-20T06:02:08.441Z,99433.94
2017-08-20T06:04:37.909Z,99431.80
2017-08-20T06:07:07.481Z,99433.58
2017-08-20T06:09:37.371Z,99432.86
2017-08-20T06:12:07.353Z,99429.56
2017-08-20T06:14:36.535Z,99436.25
2017-08-20T06:17:07.315Z,99439.61
2017-08-20T06:19:36.506Z,99435.28
2017-08-20T06:22:05.959Z,99439.41
2017-08-20T06:24:35.756Z,99434.61
2017-08-20T06:27:05.193Z,99440.93
2017-08-20T06:29:34.743Z,99445.59
2017-08-20T06:32:05.583Z,99447.29
2017-08-20T06:34:34.902Z,99450.96
2017-08-20T06:37:05.467Z,99445.10
2017-08-20T06:39:35.494Z,99446.75
2017-08-20T06:42:05.426Z,99446.63
2017-08-20T06:44:35.135Z,99455.65
2017-08-20T06:47:05.642Z,99455.19
2017-08-20T06:49:34.842Z,99461.19
2017-08-20T06:52:05.302Z,99458.63
2017-08-20T06:54:35.187Z,99465.42
2017-08-20T06:57:05.483Z,99456.51
2017-08-20T06:59:34.821Z,99461.28
2017-08-20T07:02:05.716Z,99454.27
2017-08-20T07:04:35.211Z,99455.33
2017-08-20T07:07:06.139Z,99456.86
2017-08-20T07:09:35.727Z,99459.39
2017-08-20T07:12:05.154Z,99458.77
2017-08-20T07:14:34.523Z,99462.07
2017-08-20T07:17:06.399Z,99454.63
2017-08-20T07:19:35.693Z,99459.84
2017-08-20T07:22:05.182Z,99458.79
2017-08-20T07:24:35.611Z,99459.13
2017-08-20T07:27:05.559Z,99468.58
2017-08-20T07:29:34.832Z,99468.80
2017-08-20T07:32:06.492Z,99470.95
2017-08-20T07:34:36.255Z,99479.08
2017-08-20T07:37:05.531Z,99477.45
2017-08-20T07:39:35.107Z,99477.24
2017-08-20T07:42:06.586Z,99475.27
2017-08-20T07:44:36.693Z,99485.50
2017-08-20T07:47:06.488Z,99485.14
2017-08-20T07:49:35.741Z,99487.23
2017-08-20T07:52:05.666Z,99485.58
2017-08-20T07:54:35.151Z,99485.75
2017-08-20T07:57:09.527Z,99493.73
2017-08-20T07:59:39.214Z,99492.45
2017-08-20T08:02:08.459Z,99489.69
2017-08-20T08:04:38.027Z,99489.70
2017-08-20T08:07:07.760Z,99485.11
2017-08-20T08:09:37.182Z,99485.76
2017-08-20T08:12:06.756Z,99486.62
2017-08-20T08:14:36.622Z,99481.12
2017-08-20T08:17:05.939Z,99483.51
2017-08-20T08:19:35.302Z,99482.06
2017-08-20T08:22:09.820Z,99490.38
2017-08-20T08:24:38.980Z,99481.88
2017-08-20T08:27:08.154Z,99485.45
2017-08-20T08:29:37.794Z,99488.16
2017-08-20T08:32:07.002Z,99488.66
2017-08-20T08:34:36.202Z,99486.11
2017-08-20T08:37:05.863Z,99489.70
2017-08-20T08:39:35.352Z,99493.84
2017-08-20T08:42:05.809Z,99491.66
2017-08-20T08:44:35.412Z,99489.94
2017-08-20T08:47:05.704Z,99496.96
2017-08-20T08:49:35.340Z,99498.59
2017-08-20T08:52:05.778Z,99496.88
2017-08-20T08:54:34.939Z,99490.52
2017-08-20T08:57:05.472Z,99490.02
2017-08-20T08:59:35.180Z,99479.94
2017-08-20T09:02:06.259Z,99484.02
2017-08-20T09:04:37.336Z,99488.11
2017-08-20T09:07:07.251Z,99485.85
2017-08-20T09:09:36.755Z,99493.59
2017-08-20T09:12:05.915Z,99491.14
2017-08-20T09:14:35.462Z,99494.95
2017-08-20T09:17:06.008Z,99495.14
2017-08-20T09:19:35.672Z,99486.69
2017-08-20T09:22:13.151Z,99490.58
2017-08-20T09:24:42.538Z,99488.53
2017-08-20T09:27:11.870Z,99490.92
2017-08-20T09:29:41.397Z,99491.52
2017-08-20T09:32:10.971Z,99493.75
2017-08-20T09:34:40.143Z,99497.36
2017-08-20T09:37:09.762Z,99488.88
2017-08-20T09:39:38.946Z,99490.56
2017-08-20T09:42:08.307Z,99484.30
2017-08-20T09:44:37.795Z,99487.36
2017-08-20T09:47:06.982Z,99488.36
2017-08-20T09:49:36.495Z,99486.67
2017-08-20T09:52:06.319Z,99486.78
2017-08-20T09:54:35.612Z,99485.41
2017-08-20T09:57:05.907Z,99483.05
2017-08-20T09:59:35.671Z,99481.53
2017-08-20T10:02:06.815Z,99481.85
2017-08-20T10:04:36.115Z,99480.94
2017-08-20T10:07:06.082Z,99475.16
2017-08-20T10:09:35.411Z,99486.94
2017-08-20T10:12:05.597Z,99481.35
2017-08-20T10:14:35.068Z,99487.22
2017-08-20T10:17:05.494Z,99495.09
2017-08-20T10:19:34.678Z,99490.72
2017-08-20T10:22:06.487Z,99477.30
2017-08-20T10:24:36.016Z,99487.36
2017-08-20T10:27:05.795Z,99483.82
2017-08-20T10:29:36.843Z,99476.91
2017-08-20T10:32:06.544Z,99481.88
2017-08-20T10:34:36.202Z,99481.04
2017-08-20T10:37:06.150Z,99474.41
2017-08-20T10:39:35.851Z,99469.37
2017-08-20T10:42:07.098Z,99474.31
2017-08-20T10:44:36.711Z,99466.80
2017-08-20T10:47:05.886Z,99467.44
2017-08-20T10:49:35.107Z,99466.41
2017-08-20T10:52:05.859Z,99460.81
2017-08-20T10:54:35.100Z,99462.83
2017-08-20T10:57:05.232Z,99457.62
2017-08-20T10:59:35.701Z,99460.64
2017-08-20T11:02:05.099Z,99460.08
2017-08-20T11:04:35.139Z,99448.97
2017-08-20T11:07:05.551Z,99461.09
2017-08-20T11:09:34.867Z,99457.84
2017-08-20T11:12:07.555Z,99462.79
2017-08-20T11:14:37.006Z,99465.09
2017-08-20T11:17:06.242Z,99476.84
2017-08-20T11:19:35.894Z,99475.84
2017-08-20T11:22:05.327Z,99464.75
2017-08-20T11:24:34.607Z,99461.81
2017-08-20T11:27:06.583Z,99462.19
2017-08-20T11:29:36.868Z,99460.52
2017-08-20T11:32:06.208Z,99457.46
2017-08-20T11:34:35.903Z,99449.89
2017-08-20T11:37:05.512Z,99449.73
2017-08-20T11:39:35.028Z,99452.66
2017-08-20T11:42:05.446Z,99446.77
2017-08-20T11:44:35.055Z,99456.25
2017-08-20T11:47:05.386Z,99459.80
2017-08-20T11:49:34.886Z,99459.20
2017-08-20T11:52:05.751Z,99455.56
2017-08-20T11:54:35.024Z,99461.80
2017-08-20T11:57:06.183Z,99459.19
2017-08-20T11:59:35.500Z,99457.59
2017-08-20T12:02:05.106Z,99455.48
2017-08-20T12:04:34.595Z,99465.44
2017-08-20T12:07:04.570Z,99477.03
2017-08-20T12:09:34.148Z,99467.52
2017-08-20T12:12:05.815Z,99463.85
2017-08-20T12:14:35.881Z,99474.95
2017-08-20T12:17:06.249Z,99469.95
2017-08-20T12:19:37.148Z,99476.35
2017-08-20T12:22:07.685Z,99484.42
2017-08-20T12:24:41.812Z,99485.55
2017-08-20T12:27:13.641Z,99478.80
2017-08-20T12:29:44.639Z,99483.66
2017-08-20T12:32:15.949Z,99479.30
2017-08-20T12:34:45.213Z,99480.56
2017-08-20T12:39:56.348Z,99471.38
2017-08-20T12:42:26.058Z,99475.11
2017-08-20T12:45:06.247Z,99464.07
2017-08-20T12:47:42.104Z,99470.23
2017-08-20T12:50:13.109Z,99469.59
2017-08-20T12:54:11.929Z,99470.05
2017-08-20T12:56:41.605Z,99474.92
2017-08-20T12:59:16.584Z,99468.95
2017-08-20T13:01:47.453Z,99477.97
2017-08-20T13:04:18.435Z,99475.34
2017-08-20T13:06:49.412Z,99481.30
2017-08-20T13:09:22.655Z,99473.80
2017-08-20T13:11:55.280Z,99482.56
2017-08-20T13:14:37.243Z,99502.73
2017-08-20T13:17:08.478Z,99499.94
2017-08-20T13:19:38.214Z,99497.92
2017-08-20T13:22:09.897Z,99497.50
2017-08-20T13:24:45.686Z,99504.91
2017-08-20T13:27:18.479Z,99499.63
2017-08-20T13:30:03.010Z,99513.66
2017-08-20T13:32:40.210Z,99498.87
2017-08-20T13:35:10.431Z,99505.50
2017-08-20T13:37:39.685Z,99510.79
2017-08-20T13:40:09.374Z,99508.52
2017-08-20T13:42:38.549Z,99515.59
2017-08-20T13:45:07.927Z,99514.28
2017-08-20T13:47:37.602Z,99517.86
2017-08-20T13:50:06.958Z,99506.48
2017-08-20T13:52:36.347Z,99512.81
2017-08-20T13:55:06.997Z,99506.37
2017-08-20T13:57:36.531Z,99500.69
2017-08-20T14:00:05.891Z,99512.73
2017-08-20T14:02:35.365Z,99511.38
2017-08-20T14:05:05.275Z,99509.35
2017-08-20T14:07:34.632Z,99516.91
2017-08-20T14:10:06.419Z,99517.52
2017-08-20T14:12:35.956Z,99515.47
2017-08-20T14:15:05.502Z,99521.41
2017-08-20T14:17:35.185Z,99519.13
2017-08-20T14:20:05.871Z,99520.70
2017-08-20T14:22:35.095Z,99518.00
2017-08-20T14:25:05.395Z,99518.77
2017-08-20T14:27:34.582Z,99512.66
2017-08-20T14:30:05.975Z,99516.69
2017-08-20T14:32:35.495Z,99513.09
2017-08-20T14:35:06.206Z,99515.95
2017-08-20T14:37:38.124Z,99511.70
2017-08-20T14:40:07.591Z,99512.63
2017-08-20T14:42:36.793Z,99507.27
2017-08-20T14:45:06.031Z,99501.25
2017-08-20T14:47:35.691Z,99499.45
2017-08-20T14:50:05.876Z,99500.63
2017-08-20T14:52:35.147Z,99496.60
2017-08-20T14:55:05.447Z,99489.58
2017-08-20T14:57:34.807Z,99493.39
2017-08-20T15:00:06.271Z,99492.81
2017-08-20T15:02:36.103Z,99502.92
2017-08-20T15:05:05.658Z,99497.70
2017-08-20T15:07:34.828Z,99497.87
2017-08-20T15:10:06.818Z,99492.80
2017-08-20T15:12:36.610Z,99495.14
2017-08-20T15:15:05.799Z,99495.38
2017-08-20T15:17:35.602Z,99485.77
2017-08-20T15:20:06.044Z,99488.97
2017-08-20T15:22:35.786Z,99492.56
2017-08-20T15:25:05.729Z,99488.47
2017-08-20T15:27:40.233Z,99495.72
2017-08-20T15:30:28.243Z,99494.44
2017-08-20T15:32:57.677Z,99502.50
2017-08-20T15:35:26.922Z,99508.17
2017-08-20T15:37:56.527Z,99505.89
2017-08-20T15:40:25.907Z,99506.35
2017-08-20T15:42:55.155Z,99510.88
2017-08-20T15:45:25.113Z,99504.94
2017-08-20T15:47:54.303Z,99506.56
2017-08-20T15:50:23.618Z,99520.09
2017-08-20T15:52:53.293Z,99530.23
2017-08-20T15:55:22.527Z,99526.89
2017-08-20T15:57:51.739Z,99522.50
2017-08-20T16:00:24.505Z,99521.03
2017-08-20T16:02:54.080Z,99528.32
2017-08-20T16:05:38.979Z,99530.70
2017-08-20T16:08:17.433Z,99526.50
2017-08-20T16:10:46.917Z,99531.72
2017-08-20T16:13:16.909Z,99521.75
2017-08-20T16:15:58.101Z,99523.05
2017-08-20T16:18:32.055Z,99521.00
2017-08-20T16:21:03.527Z,99522.73
2017-08-20T16:23:33.414Z,99525.86
2017-08-20T16:26:04.483Z,99523.11
2017-08-20T16:28:33.918Z,99517.08
2017-08-20T16:31:10.912Z,99523.30
2017-08-20T16:33:51.184Z,99511.74
2017-08-20T16:36:20.394Z,99510.17
2017-08-20T16:38:49.796Z,99512.96
2017-08-20T16:41:35.948Z,99521.91
2017-08-20T16:44:06.835Z,99532.44
2017-08-20T16:46:36.348Z,99528.04
2017-08-20T16:49:20.582Z,99523.00
2017-08-20T16:51:51.248Z,99521.26
2017-08-20T16:54:29.646Z,99519.38
2017-08-20T16:56:59.027Z,99525.68
2017-08-20T16:59:52.097Z,99518.11
2017-08-20T17:02:27.540Z,99516.28
2017-08-20T17:04:58.087Z,99523.68
2017-08-20T17:07:29.042Z,99526.00
2017-08-20T17:09:58.720Z,99536.66
2017-08-20T17:12:28.865Z,99528.77
2017-08-20T17:15:08.640Z,99521.75
2017-08-20T17:17:38.472Z,99529.02
2017-08-20T17:20:08.031Z,99530.02
2017-08-20T17:22:38.415Z,99536.73
2017-08-20T17:25:17.479Z,99534.61
2017-08-20T17:27:50.916Z,99530.91
2017-08-20T17:30:28.959Z,99531.20
2017-08-20T17:33:07.891Z,99539.77
2017-08-20T17:35:37.234Z,99532.20
2017-08-20T17:38:06.914Z,99534.59
2017-08-20T17:40:36.455Z,99541.68
2017-08-20T17:43:05.967Z,99537.70
2017-08-20T17:45:35.560Z,99538.97
2017-08-20T17:48:06.312Z,99537.18
2017-08-20T17:50:35.636Z,99539.08
2017-08-20T17:53:05.973Z,99540.22
2017-08-20T17:55:35.492Z,99545.97
2017-08-20T17:58:05.795Z,99548.51
2017-08-20T18:00:35.738Z,99542.78
2017-08-20T18:03:05.130Z,99542.61
2017-08-20T18:05:34.774Z,99548.69
2017-08-20T18:08:05.637Z,99554.81
2017-08-20T18:10:35.051Z,99552.83
2017-08-20T18:13:05.987Z,99554.58
2017-08-20T18:15:36.036Z,99552.49
2017-08-20T18:18:09.055Z,99560.04
2017-08-20T18:20:38.971Z,99568.30
2017-08-20T18:23:08.563Z,99561.84
2017-08-20T18:25:37.784Z,99568.45
2017-08-20T18:28:08.090Z,99569.42
2017-08-20T18:30:37.969Z,99569.73
2017-08-20T18:33:07.423Z,99563.22
2017-08-20T18:35:37.362Z,99574.23
2017-08-20T18:38:06.629Z,99570.52
2017-08-20T18:40:36.047Z,99568.57
2017-08-20T18:43:06.831Z,99571.28
2017-08-20T18:45:36.103Z,99578.77
2017-08-20T18:48:05.822Z,99569.16
2017-08-20T18:50:35.660Z,99563.44
2017-08-20T18:53:06.344Z,99569.73
2017-08-20T18:55:36.115Z,99571.36
2017-08-20T18:58:06.944Z,99571.34
2017-08-20T19:00:36.531Z,99573.45
2017-08-20T19:03:06.177Z,99577.66
2017-08-20T19:05:35.927Z,99575.73
2017-08-20T19:08:06.135Z,99573.45
2017-08-20T19:10:35.558Z,99586.38
2017-08-20T19:13:07.081Z,99584.69
2017-08-20T19:15:36.554Z,99590.43
2017-08-20T19:18:07.671Z,99590.80
2017-08-20T19:20:37.552Z,99588.30
2017-08-20T19:23:06.943Z,99597.89
2017-08-20T19:25:36.336Z,99588.47
2017-08-20T19:28:06.032Z,99594.21
2017-08-20T19:30:35.460Z,99594.19
2017-08-20T19:33:06.297Z,99595.00
2017-08-20T19:35:35.816Z,99599.12
2017-08-20T19:38:05.963Z,99595.98
2017-08-20T19:40:35.172Z,99601.34
2017-08-20T19:43:07.195Z,99603.70
2017-08-20T19:45:38.687Z,99597.33
2017-08-20T19:48:09.708Z,99597.61
2017-08-20T19:50:38.956Z,99604.86
2017-08-20T19:53:08.253Z,99612.81
2017-08-20T19:55:37.958Z,99612.39
2017-08-20T19:58:07.127Z,99615.52
2017-08-20T20:00:36.366Z,99614.19
2017-08-20T20:03:05.857Z,99617.06
2017-08-20T20:05:35.382Z,99623.54
2017-08-20T20:08:04.559Z,99621.97
2017-08-20T20:10:34.123Z,99612.42
2017-08-20T20:13:04.833Z,99622.51
2017-08-20T20:15:34.382Z,99620.87
2017-08-20T20:18:06.302Z,99617.80
2017-08-20T20:20:35.710Z,99620.17
2017-08-20T20:23:05.507Z,99620.91
2017-08-20T20:25:35.711Z,99618.95
2017-08-20T20:28:05.001Z,99629.30
2017-08-20T20:30:34.183Z,99623.39
2017-08-20T20:33:03.921Z,99625.55
2017-08-20T20:35:33.301Z,99627.69
2017-08-20T20:38:04.177Z,99628.98
2017-08-20T20:40:34.410Z,99633.59
2017-08-20T20:43:03.784Z,99629.98
2017-08-20T20:45:33.160Z,99633.59
2017-08-20T20:48:02.808Z,99632.02
2017-08-20T20:50:32.778Z,99636.62
2017-08-20T20:53:03.836Z,99629.45
2017-08-20T20:55:33.528Z,99643.59
2017-08-20T20:58:03.836Z,99640.06
2017-08-20T21:00:33.377Z,99639.91
2017-08-20T21:03:06.735Z,99645.74
2017-08-20T21:05:36.194Z,99644.08
2017-08-20T21:08:05.927Z,99649.98
2017-08-20T21:10:35.185Z,99650.78
2017-08-20T21:13:06.541Z,99653.63
2017-08-20T21:15:36.243Z,99653.38
2017-08-20T21:18:05.419Z,99648.67
2017-08-20T21:20:34.912Z,99650.52
2017-08-20T21:23:05.767Z,99654.67
2017-08-20T21:25:35.271Z,99649.59
2017-08-20T21:28:06.131Z,99655.44
2017-08-20T21:30:35.686Z,99654.26
2017-08-20T21:33:05.901Z,99650.16
2017-08-20T21:35:35.419Z,99647.48
2017-08-20T21:38:05.735Z,99642.31
2017-08-20T21:40:35.303Z,99646.63
2017-08-20T21:43:06.094Z,99649.09
2017-08-20T21:45:36.003Z,99652.97
2017-08-20T21:48:05.910Z,99652.32
2017-08-20T21:50:35.173Z,99651.75
2017-08-20T21:53:05.580Z,99653.09
2017-08-20T21:55:34.812Z,99652.17
2017-08-20T21:58:05.404Z,99645.81
2017-08-20T22:00:35.339Z,99640.43
2017-08-20T22:03:07.564Z,99635.61
2017-08-20T22:05:36.864Z,99640.67
2017-08-20T22:08:06.899Z,99635.41
2017-08-20T22:10:37.023Z,99631.29
2017-08-20T22:13:06.491Z,99629.13
2017-08-20T22:15:36.575Z,99627.02
2017-08-20T22:18:06.238Z,99627.22
2017-08-20T22:20:36.411Z,99623.55
2017-08-20T22:23:06.843Z,99625.83
2017-08-20T22:25:36.183Z,99622.38
2017-08-20T22:28:05.714Z,99621.59
2017-08-20T22:30:35.267Z,99617.88
2017-08-20T22:33:06.423Z,99627.27
2017-08-20T22:35:35.687Z,99626.30
2017-08-20T22:38:06.130Z,99629.00
2017-08-20T22:40:35.426Z,99630.84
2017-08-20T22:43:06.395Z,99632.10
2017-08-20T22:45:39.887Z,99627.56
2017-08-20T22:48:09.662Z,99626.07
2017-08-20T22:50:39.446Z,99626.07
2017-08-20T22:53:10.794Z,99628.00
2017-08-20T22:55:40.770Z,99617.70
2017-08-20T22:58:10.322Z,99617.91
2017-08-20T23:00:39.941Z,99620.44
2017-08-20T23:03:09.195Z,99623.05
2017-08-20T23:05:39.846Z,99620.54
2017-08-20T23:08:10.048Z,99619.82
2017-08-20T23:10:40.893Z,99619.27
2017-08-20T23:13:10.167Z,99613.83
2017-08-20T23:15:41.239Z,99615.74
2017-08-20T23:18:12.482Z,99618.34
2017-08-20T23:20:42.979Z,99616.93
2017-08-20T23:23:12.438Z,99612.17
2017-08-20T23:25:41.998Z,99607.86
2017-08-20T23:28:11.188Z,99606.94
2017-08-20T23:30:43.217Z,99611.81
2017-08-20T23:33:12.402Z,99604.13
2017-08-20T23:35:41.579Z,99609.70
2017-08-20T23:38:11.067Z,99611.54
2017-08-20T23:40:40.505Z,99610.89
2017-08-20T23:43:11.638Z,99602.38
2017-08-20T23:45:41.310Z,99596.02
2017-08-20T23:48:10.476Z,99602.36
2017-08-20T23:50:39.926Z,99600.81
2017-08-20T23:53:10.174Z,99588.20
2017-08-20T23:55:39.519Z,99595.24
2017-08-20T23:58:12.640Z,99593.27
